createdAt,value
2019-02-06T00:00:57.551Z,11.17
2019-02-06T00:03:26.955Z,11.73
2019-02-06T00:05:56.342Z,10.77
2019-02-06T00:08:25.631Z,10.57
2019-02-06T00:10:54.991Z,10.23
2019-02-06T00:13:24.367Z,10.70
2019-02-06T00:15:54.095Z,11.00
2019-02-06T00:18:23.547Z,11.27
2019-02-06T00:20:52.897Z,11.23
2019-02-06T00:23:22.269Z,10.37
2019-02-06T00:25:51.642Z,10.13
2019-02-06T00:28:20.995Z,10.30
2019-02-06T00:30:50.766Z,10.50
2019-02-06T00:33:20.142Z,9.37
2019-02-06T00:35:49.482Z,10.20
2019-02-06T00:38:18.858Z,10.40
2019-02-06T00:40:48.148Z,10.20
2019-02-06T00:43:17.567Z,9.80
2019-02-06T00:45:47.362Z,10.60
2019-02-06T00:48:16.709Z,10.27
2019-02-06T00:50:46.085Z,11.30
2019-02-06T00:53:15.431Z,11.20
2019-02-06T00:55:44.727Z,11.10
2019-02-06T00:58:14.075Z,10.60
2019-02-06T01:00:43.720Z,10.47
2019-02-06T01:03:13.080Z,11.40
2019-02-06T01:05:42.362Z,11.50
2019-02-06T01:08:12.147Z,11.23
2019-02-06T01:10:41.482Z,11.33
2019-02-06T01:13:10.774Z,11.10
2019-02-06T01:15:40.490Z,10.40
2019-02-06T01:18:09.852Z,10.87
2019-02-06T01:20:39.222Z,11.10
2019-02-06T01:23:08.576Z,11.97
2019-02-06T01:25:37.924Z,10.83
2019-02-06T01:28:07.317Z,11.43
2019-02-06T01:30:50.806Z,11.53
2019-02-06T01:33:20.098Z,11.47
2019-02-06T01:35:50.320Z,11.80
2019-02-06T01:38:19.905Z,11.53
2019-02-06T01:40:49.270Z,11.37
2019-02-06T01:43:19.037Z,11.60
2019-02-06T01:45:48.391Z,12.00
2019-02-06T01:48:17.761Z,11.00
2019-02-06T01:50:47.107Z,11.73
2019-02-06T01:53:16.436Z,12.67
2019-02-06T01:55:45.801Z,12.00
2019-02-06T01:58:15.195Z,11.30
2019-02-06T02:00:44.578Z,11.37
2019-02-06T02:03:14.065Z,11.07
2019-02-06T02:05:43.420Z,11.27
2019-02-06T02:08:12.722Z,12.07
2019-02-06T02:10:42.182Z,11.30
2019-02-06T02:13:11.572Z,11.20
2019-02-06T02:15:41.018Z,11.53
2019-02-06T02:18:10.428Z,11.30
2019-02-06T02:20:39.793Z,11.23
2019-02-06T02:23:09.129Z,11.40
2019-02-06T02:25:38.503Z,10.80
2019-02-06T02:28:07.847Z,10.87
2019-02-06T02:30:50.025Z,11.07
2019-02-06T02:33:19.364Z,10.90
2019-02-06T02:35:48.696Z,10.07
2019-02-06T02:38:18.068Z,11.27
2019-02-06T02:40:47.414Z,10.33
2019-02-06T02:43:16.773Z,10.03
2019-02-06T02:45:46.119Z,10.53
2019-02-06T02:48:15.460Z,9.70
2019-02-06T02:50:44.835Z,9.70
2019-02-06T02:53:14.121Z,9.90
2019-02-06T02:55:43.472Z,9.90
2019-02-06T02:58:12.855Z,10.03
2019-02-06T03:01:01.154Z,10.10
2019-02-06T03:03:38.732Z,9.23
2019-02-06T03:06:08.618Z,10.00
2019-02-06T03:08:37.977Z,9.73
2019-02-06T03:11:07.340Z,9.57
2019-02-06T03:13:36.711Z,9.93
2019-02-06T03:16:06.062Z,9.87
2019-02-06T03:18:35.398Z,9.70
2019-02-06T03:21:05.095Z,10.07
2019-02-06T03:23:34.433Z,8.70
2019-02-06T03:26:03.728Z,9.20
2019-02-06T03:28:33.096Z,9.47
2019-02-06T03:31:02.391Z,9.40
2019-02-06T03:33:31.769Z,9.60
2019-02-06T03:36:01.322Z,9.20
2019-02-06T03:38:30.610Z,8.90
2019-02-06T03:40:59.968Z,9.07
2019-02-06T03:43:29.297Z,9.93
2019-02-06T03:45:58.614Z,9.33
2019-02-06T03:48:27.886Z,10.03
2019-02-06T03:50:57.364Z,10.20
2019-02-06T03:53:26.729Z,10.13
2019-02-06T03:55:56.010Z,9.77
2019-02-06T03:58:25.362Z,10.00
2019-02-06T04:00:54.749Z,9.07
2019-02-06T04:03:24.117Z,9.93
2019-02-06T04:05:53.434Z,9.33
2019-02-06T04:08:23.285Z,9.80
2019-02-06T04:10:52.553Z,10.57
2019-02-06T04:13:21.913Z,10.73
2019-02-06T04:15:51.261Z,10.77
2019-02-06T04:18:20.546Z,10.80
2019-02-06T04:20:49.934Z,10.87
2019-02-06T04:23:19.584Z,9.77
2019-02-06T04:25:48.943Z,10.17
2019-02-06T04:28:18.618Z,9.27
2019-02-06T04:30:47.970Z,9.37
2019-02-06T04:33:17.323Z,9.63
2019-02-06T04:35:46.709Z,9.60
2019-02-06T04:38:16.347Z,9.43
2019-02-06T04:40:45.716Z,8.47
2019-02-06T04:43:15.052Z,9.33
2019-02-06T04:45:44.425Z,9.13
2019-02-06T04:48:13.705Z,9.10
2019-02-06T04:50:43.082Z,9.33
2019-02-06T04:53:12.734Z,8.43
2019-02-06T04:55:42.082Z,8.80
2019-02-06T04:58:11.445Z,8.30
2019-02-06T05:00:40.761Z,8.87
2019-02-06T05:03:10.038Z,9.23
2019-02-06T05:05:39.416Z,8.30
2019-02-06T05:08:09.478Z,9.27
2019-02-06T05:10:38.778Z,9.27
2019-02-06T05:13:08.057Z,8.93
2019-02-06T05:15:37.416Z,8.70
2019-02-06T05:18:06.718Z,8.33
2019-02-06T05:20:38.004Z,8.17
2019-02-06T05:23:08.574Z,9.17
2019-02-06T05:25:37.885Z,8.37
2019-02-06T05:28:07.650Z,8.47
2019-02-06T05:30:37.030Z,8.80
2019-02-06T05:33:06.379Z,8.70
2019-02-06T05:35:35.641Z,9.07
2019-02-06T05:38:05.706Z,8.40
2019-02-06T05:40:35.033Z,8.37
2019-02-06T05:43:04.772Z,8.67
2019-02-06T05:45:34.122Z,8.60
2019-02-06T05:48:03.486Z,8.47
2019-02-06T05:50:32.826Z,8.17
2019-02-06T05:53:02.194Z,8.57
2019-02-06T05:55:31.652Z,8.57
2019-02-06T05:58:00.930Z,8.43
2019-02-06T06:00:37.393Z,8.90
2019-02-06T06:03:06.756Z,9.27
2019-02-06T06:05:36.134Z,9.77
2019-02-06T06:08:05.498Z,8.90
2019-02-06T06:10:34.810Z,9.47
2019-02-06T06:13:04.163Z,8.80
2019-02-06T06:15:33.503Z,9.30
2019-02-06T06:18:02.875Z,8.43
2019-02-06T06:20:32.369Z,9.23
2019-02-06T06:23:01.686Z,8.80
2019-02-06T06:25:31.268Z,8.53
2019-02-06T06:28:00.637Z,9.03
2019-02-06T06:30:30.013Z,8.60
2019-02-06T06:32:59.419Z,9.13
2019-02-06T06:35:28.787Z,9.60
2019-02-06T06:38:02.590Z,10.30
2019-02-06T06:40:29.208Z,10.30
2019-02-06T06:42:58.559Z,9.43
2019-02-06T06:45:27.944Z,9.33
2019-02-06T06:47:57.238Z,9.40
2019-02-06T06:50:26.613Z,9.57
2019-02-06T06:52:55.914Z,9.50
2019-02-06T06:55:25.601Z,8.83
2019-02-06T06:57:54.957Z,8.50
2019-02-06T07:00:26.265Z,8.87
2019-02-06T07:02:55.801Z,9.03
2019-02-06T07:05:25.162Z,9.07
2019-02-06T07:07:54.876Z,8.80
2019-02-06T07:10:24.668Z,8.20
2019-02-06T07:12:54.017Z,8.90
2019-02-06T07:15:28.856Z,9.10
2019-02-06T07:17:58.361Z,9.10
2019-02-06T07:20:27.829Z,9.03
2019-02-06T07:22:57.153Z,8.80
2019-02-06T07:25:26.525Z,8.50
2019-02-06T07:27:55.887Z,9.40
2019-02-06T07:30:28.044Z,9.10
2019-02-06T07:32:57.628Z,9.03
2019-02-06T07:35:26.997Z,9.30
2019-02-06T07:37:56.742Z,9.23
2019-02-06T07:40:26.254Z,8.57
2019-02-06T07:42:55.580Z,9.37
2019-02-06T07:45:24.936Z,8.73
2019-02-06T07:47:54.297Z,8.87
2019-02-06T07:50:25.891Z,9.27
2019-02-06T07:52:55.547Z,8.90
2019-02-06T07:55:24.878Z,8.73
2019-02-06T07:57:54.348Z,8.83
2019-02-06T08:00:23.751Z,8.30
2019-02-06T08:02:53.989Z,8.90
2019-02-06T08:05:23.369Z,8.83
2019-02-06T08:07:52.795Z,9.10
2019-02-06T08:10:41.131Z,9.13
2019-02-06T08:13:10.476Z,9.03
2019-02-06T08:15:39.816Z,8.77
2019-02-06T08:18:09.130Z,8.13
2019-02-06T08:20:38.969Z,9.00
2019-02-06T08:23:08.352Z,9.13
2019-02-06T08:25:37.700Z,9.70
2019-02-06T08:28:07.061Z,9.33
2019-02-06T08:30:38.622Z,8.87
2019-02-06T08:33:07.913Z,8.90
2019-02-06T08:35:37.218Z,8.80
2019-02-06T08:38:06.498Z,8.63
2019-02-06T08:40:35.794Z,9.27
2019-02-06T08:43:05.129Z,9.07
2019-02-06T08:45:34.474Z,8.63
2019-02-06T08:48:03.853Z,9.73
2019-02-06T08:50:33.423Z,9.03
2019-02-06T08:53:02.811Z,9.27
2019-02-06T08:55:32.351Z,9.23
2019-02-06T08:58:02.156Z,8.80
2019-02-06T09:00:33.562Z,8.83
2019-02-06T09:03:03.283Z,9.03
2019-02-06T09:05:32.672Z,9.33
2019-02-06T09:08:02.007Z,9.50
2019-02-06T09:10:31.443Z,8.87
2019-02-06T09:13:00.890Z,9.47
2019-02-06T09:15:30.313Z,8.30
2019-02-06T09:17:59.688Z,9.73
2019-02-06T09:20:29.129Z,9.13
2019-02-06T09:22:59.756Z,8.63
2019-02-06T09:25:29.649Z,9.30
2019-02-06T09:27:59.623Z,9.53
2019-02-06T09:30:30.589Z,9.50
2019-02-06T09:33:00.401Z,9.73
2019-02-06T09:35:30.205Z,9.13
2019-02-06T09:37:59.584Z,9.40
2019-02-06T09:40:30.056Z,8.73
2019-02-06T09:42:59.557Z,8.90
2019-02-06T09:45:29.419Z,9.17
2019-02-06T09:47:58.805Z,8.70
2019-02-06T09:50:30.595Z,8.63
2019-02-06T09:52:59.933Z,8.93
2019-02-06T09:55:29.695Z,9.27
2019-02-06T09:57:59.422Z,9.07
2019-02-06T10:00:30.793Z,9.23
2019-02-06T10:03:00.299Z,9.27
2019-02-06T10:05:30.346Z,9.53
2019-02-06T10:07:59.725Z,9.87
2019-02-06T10:10:29.467Z,9.03
2019-02-06T10:12:58.855Z,10.57
2019-02-06T10:15:30.820Z,10.30
2019-02-06T10:18:01.451Z,9.70
2019-02-06T10:20:36.441Z,10.30
2019-02-06T10:23:06.074Z,10.33
2019-02-06T10:25:35.670Z,9.77
2019-02-06T10:28:04.987Z,9.67
2019-02-06T10:30:36.374Z,9.97
2019-02-06T10:33:05.832Z,9.43
2019-02-06T10:35:35.301Z,9.80
2019-02-06T10:38:05.373Z,9.77
2019-02-06T10:40:34.796Z,9.93
2019-02-06T10:43:04.311Z,9.70
2019-02-06T10:45:33.859Z,9.83
2019-02-06T10:48:03.247Z,10.13
2019-02-06T10:50:34.717Z,9.57
2019-02-06T10:53:04.201Z,10.03
2019-02-06T10:55:33.887Z,9.90
2019-02-06T10:58:03.262Z,8.80
2019-02-06T11:00:35.471Z,9.17
2019-02-06T11:03:05.523Z,9.23
2019-02-06T11:05:35.198Z,9.50
2019-02-06T11:08:04.746Z,9.13
2019-02-06T11:10:37.111Z,9.77
2019-02-06T11:13:07.790Z,8.93
2019-02-06T11:15:37.398Z,9.53
2019-02-06T11:18:07.280Z,9.43
2019-02-06T11:20:37.352Z,9.30
2019-02-06T11:23:07.468Z,9.60
2019-02-06T11:25:36.963Z,9.03
2019-02-06T11:28:07.288Z,9.13
2019-02-06T11:30:37.072Z,8.63
2019-02-06T11:33:07.160Z,8.83
2019-02-06T11:35:36.697Z,8.53
2019-02-06T11:38:07.016Z,8.73
2019-02-06T11:40:36.443Z,8.43
2019-02-06T11:43:06.533Z,9.33
2019-02-06T11:45:36.253Z,8.97
2019-02-06T11:48:06.287Z,8.87
2019-02-06T11:50:40.718Z,8.67
2019-02-06T11:53:29.150Z,8.40
2019-02-06T11:55:58.688Z,8.50
2019-02-06T11:58:28.032Z,8.73
2019-02-06T12:01:15.163Z,8.50
2019-02-06T12:03:44.563Z,8.40
2019-02-06T12:06:14.054Z,8.37
2019-02-06T12:08:55.903Z,8.67
2019-02-06T12:11:25.302Z,8.23
2019-02-06T12:13:54.666Z,8.57
2019-02-06T12:16:24.092Z,8.57
2019-02-06T12:18:53.786Z,8.20
2019-02-06T12:21:23.169Z,8.70
2019-02-06T12:23:52.549Z,8.97
2019-02-06T12:26:21.865Z,9.23
2019-02-06T12:28:51.155Z,8.40
2019-02-06T12:31:20.525Z,9.47
2019-02-06T12:33:50.139Z,9.27
2019-02-06T12:36:19.621Z,8.23
2019-02-06T12:38:53.475Z,9.13
2019-02-06T12:41:19.995Z,8.80
2019-02-06T12:43:49.340Z,9.43
2019-02-06T12:46:18.744Z,9.20
2019-02-06T12:48:48.026Z,9.20
2019-02-06T12:51:17.314Z,9.20
2019-02-06T12:53:46.618Z,9.40
2019-02-06T12:56:16.211Z,9.00
2019-02-06T12:58:45.568Z,10.40
2019-02-06T13:01:14.949Z,9.00
2019-02-06T13:03:44.330Z,9.27
2019-02-06T13:06:13.597Z,9.90
2019-02-06T13:08:43.027Z,9.37
2019-02-06T13:11:12.480Z,8.53
2019-02-06T13:13:41.814Z,8.13
2019-02-06T13:16:11.239Z,8.83
2019-02-06T13:18:40.604Z,8.47
2019-02-06T13:21:09.961Z,9.30
2019-02-06T13:23:39.565Z,8.77
2019-02-06T13:26:08.918Z,8.87
2019-02-06T13:28:38.306Z,9.40
2019-02-06T13:31:07.722Z,10.13
2019-02-06T13:33:37.127Z,10.57
2019-02-06T13:36:09.945Z,9.57
2019-02-06T13:38:39.321Z,9.73
2019-02-06T13:41:08.643Z,9.70
2019-02-06T13:43:38.004Z,9.37
2019-02-06T13:46:07.739Z,9.33
2019-02-06T13:48:37.101Z,9.10
2019-02-06T13:51:16.302Z,9.23
2019-02-06T13:53:37.576Z,11.97
2019-02-06T13:56:06.963Z,10.70
2019-02-06T13:58:36.395Z,9.63
2019-02-06T14:01:06.284Z,10.70
2019-02-06T14:03:35.539Z,11.20
2019-02-06T14:06:05.265Z,9.93
2019-02-06T14:08:34.646Z,9.43
2019-02-06T14:11:04.008Z,9.33
2019-02-06T14:13:33.372Z,9.90
2019-02-06T14:16:02.753Z,9.90
2019-02-06T14:18:32.176Z,9.37
2019-02-06T14:21:01.462Z,9.77
2019-02-06T14:23:38.390Z,9.87
2019-02-06T14:26:22.773Z,10.90
2019-02-06T14:29:41.101Z,10.93
2019-02-06T14:32:54.729Z,9.33
2019-02-06T14:36:02.690Z,9.77
2019-02-06T14:38:57.751Z,9.13
2019-02-06T14:41:39.743Z,10.40
2019-02-06T14:44:21.071Z,10.37
2019-02-06T14:47:28.893Z,11.53
2019-02-06T14:50:53.888Z,9.90
2019-02-06T14:53:47.643Z,11.43
2019-02-06T14:56:49.755Z,10.10
2019-02-06T14:59:28.513Z,9.37
2019-02-06T15:02:36.127Z,9.43
2019-02-06T15:08:56.617Z,9.37
2019-02-06T15:12:17.199Z,9.43
2019-02-06T15:15:23.446Z,9.73
2019-02-06T15:18:17.074Z,10.33
2019-02-06T15:21:36.461Z,11.27
2019-02-06T15:24:30.287Z,10.20
2019-02-06T15:27:43.813Z,10.03
2019-02-06T15:30:39.575Z,10.20
2019-02-06T15:33:25.317Z,11.80
2019-02-06T15:36:24.146Z,9.37
2019-02-06T15:39:17.131Z,10.20
2019-02-06T15:41:56.072Z,9.70
2019-02-06T15:45:00.579Z,10.10
2019-02-06T15:48:05.031Z,10.10
2019-02-06T15:50:53.591Z,9.60
2019-02-06T15:53:54.610Z,10.13
2019-02-06T15:57:19.885Z,10.77
2019-02-06T16:00:33.217Z,9.90
2019-02-06T16:03:37.928Z,10.27
2019-02-06T16:06:38.603Z,9.53
2019-02-06T16:10:07.357Z,8.90
2019-02-06T16:13:10.445Z,9.63
2019-02-06T16:15:56.511Z,9.10
2019-02-06T16:19:03.133Z,11.78
2019-02-06T16:22:31.968Z,9.97
2019-02-06T16:25:12.516Z,9.43
2019-02-06T16:28:24.036Z,10.10
2019-02-06T16:31:26.559Z,10.37
2019-02-06T16:34:17.563Z,9.83
2019-02-06T16:37:16.223Z,10.13
2019-02-06T16:40:19.012Z,9.40
2019-02-06T16:43:31.410Z,10.50
2019-02-06T16:46:43.759Z,10.27
2019-02-06T16:49:49.182Z,9.73
2019-02-06T16:52:39.956Z,10.70
2019-02-06T16:55:33.341Z,10.40
2019-02-06T16:59:05.100Z,10.67
2019-02-06T17:02:06.241Z,10.90
2019-02-06T17:05:10.859Z,11.23
2019-02-06T17:08:12.541Z,10.27
2019-02-06T17:11:23.391Z,12.30
2019-02-06T17:14:26.175Z,11.27
2019-02-06T17:17:07.925Z,10.33
2019-02-06T17:20:03.818Z,10.17
2019-02-06T17:22:42.299Z,9.73
2019-02-06T17:25:59.319Z,8.80
2019-02-06T17:28:43.753Z,9.50
2019-02-06T17:31:55.686Z,9.33
2019-02-06T17:34:51.112Z,9.33
2019-02-06T17:38:09.434Z,8.27
2019-02-06T17:41:01.474Z,8.20
2019-02-06T17:44:15.029Z,9.23
2019-02-06T17:47:13.584Z,10.10
2019-02-06T17:49:56.987Z,9.27
2019-02-06T17:53:03.193Z,10.73
2019-02-06T17:55:32.570Z,20.97
2019-02-06T17:58:07.830Z,17.57
2019-02-06T18:01:00.476Z,15.97
2019-02-06T18:03:34.065Z,15.10
2019-02-06T18:06:03.512Z,14.40
2019-02-06T18:08:32.990Z,14.80
2019-02-06T18:11:02.420Z,11.67
2019-02-06T18:13:31.830Z,11.17
2019-02-06T18:16:01.236Z,12.03
2019-02-06T18:18:30.696Z,8.77
2019-02-06T18:21:00.142Z,8.63
2019-02-06T18:23:29.506Z,9.83
2019-02-06T18:25:58.943Z,15.73
2019-02-06T18:28:28.319Z,14.77
2019-02-06T18:30:57.718Z,10.90
2019-02-06T18:33:28.150Z,9.00
2019-02-06T18:35:57.562Z,9.17
2019-02-06T18:38:27.099Z,9.03
2019-02-06T18:40:56.531Z,9.50
2019-02-06T18:43:25.913Z,9.27
2019-02-06T18:45:55.293Z,8.83
2019-02-06T18:48:28.347Z,8.27
2019-02-06T18:50:58.475Z,8.57
2019-02-06T18:53:27.868Z,10.13
2019-02-06T18:55:57.431Z,9.37
2019-02-06T18:58:27.588Z,8.20
2019-02-06T19:01:02.871Z,8.33
2019-02-06T19:03:35.967Z,7.73
2019-02-06T19:06:05.705Z,10.27
2019-02-06T19:08:36.464Z,8.80
2019-02-06T19:11:06.179Z,8.50
2019-02-06T19:13:35.561Z,7.87
2019-02-06T19:16:05.157Z,6.93
2019-02-06T19:18:37.172Z,7.23
2019-02-06T19:21:05.701Z,7.17
2019-02-06T19:23:35.517Z,6.77
2019-02-06T19:26:05.057Z,9.13
2019-02-06T19:28:34.997Z,9.10
2019-02-06T19:31:04.360Z,8.00
2019-02-06T19:33:33.741Z,8.20
2019-02-06T19:36:03.119Z,11.13
2019-02-06T19:38:32.605Z,14.57
2019-02-06T19:41:02.357Z,11.07
2019-02-06T19:43:31.748Z,11.03
2019-02-06T19:46:01.169Z,19.13
2019-02-06T19:48:30.493Z,16.00
2019-02-06T19:50:59.812Z,14.10
2019-02-06T19:53:29.381Z,10.20
2019-02-06T19:55:58.890Z,10.63
2019-02-06T19:58:28.606Z,11.60
2019-02-06T20:00:58.039Z,10.87
2019-02-06T20:03:27.441Z,10.17
2019-02-06T20:05:56.855Z,10.43
2019-02-06T20:08:26.329Z,10.60
2019-02-06T20:10:55.817Z,9.77
2019-02-06T20:13:25.239Z,10.13
2019-02-06T20:15:55.343Z,9.87
2019-02-06T20:18:24.731Z,10.50
2019-02-06T20:20:54.133Z,10.60
2019-02-06T20:23:23.560Z,10.37
2019-02-06T20:25:52.906Z,11.30
2019-02-06T20:28:22.336Z,10.53
2019-02-06T20:30:52.154Z,12.00
2019-02-06T20:33:22.360Z,10.87
2019-02-06T20:35:51.762Z,9.53
2019-02-06T20:38:21.200Z,10.77
2019-02-06T20:40:50.607Z,11.40
2019-02-06T20:43:22.191Z,11.13
2019-02-06T20:45:51.012Z,10.57
2019-02-06T20:48:20.626Z,9.73
2019-02-06T20:50:51.604Z,10.27
2019-02-06T20:53:21.034Z,9.37
2019-02-06T20:55:51.936Z,9.43
2019-02-06T20:58:21.354Z,10.77
2019-02-06T21:00:50.707Z,12.33
2019-02-06T21:03:20.132Z,10.53
2019-02-06T21:05:52.760Z,10.27
2019-02-06T21:08:22.150Z,11.57
2019-02-06T21:10:51.781Z,10.43
2019-02-06T21:13:21.149Z,10.47
2019-02-06T21:15:50.566Z,11.20
2019-02-06T21:18:19.910Z,10.27
2019-02-06T21:20:51.797Z,11.70
2019-02-06T21:23:20.344Z,11.83
2019-02-06T21:25:49.718Z,11.33
2019-02-06T21:28:19.072Z,11.93
2019-02-06T21:30:48.474Z,11.67
2019-02-06T21:33:17.861Z,10.93
2019-02-06T21:35:47.325Z,10.93
2019-02-06T21:38:16.714Z,11.77
2019-02-06T21:40:46.100Z,11.03
2019-02-06T21:43:15.413Z,11.83
2019-02-06T21:45:44.873Z,11.90
2019-02-06T21:48:14.271Z,12.50
2019-02-06T21:50:43.671Z,12.23
2019-02-06T21:53:13.048Z,12.43
2019-02-06T21:55:42.359Z,13.17
2019-02-06T21:58:11.762Z,18.40
2019-02-06T22:00:42.256Z,14.00
2019-02-06T22:03:11.739Z,13.60
2019-02-06T22:05:41.138Z,13.43
2019-02-06T22:08:10.410Z,13.17
2019-02-06T22:10:39.776Z,12.53
2019-02-06T22:13:09.183Z,13.07
2019-02-06T22:15:38.559Z,13.30
2019-02-06T22:18:08.427Z,13.20
2019-02-06T22:20:37.817Z,12.93
2019-02-06T22:23:07.227Z,12.83
2019-02-06T22:25:36.524Z,13.07
2019-02-06T22:28:05.921Z,13.93
2019-02-06T22:30:35.284Z,13.50
2019-02-06T22:33:04.986Z,14.53
2019-02-06T22:35:34.389Z,12.97
2019-02-06T22:38:03.799Z,13.53
2019-02-06T22:40:33.211Z,13.87
2019-02-06T22:43:02.570Z,13.17
2019-02-06T22:45:31.953Z,13.93
2019-02-06T22:48:01.746Z,13.77
2019-02-06T22:50:31.216Z,14.10
2019-02-06T22:53:00.673Z,13.77
2019-02-06T22:55:30.138Z,14.43
2019-02-06T22:57:59.424Z,14.30
2019-02-06T23:01:00.336Z,14.90
2019-02-06T23:03:32.496Z,13.60
2019-02-06T23:06:01.845Z,14.67
2019-02-06T23:08:31.334Z,14.77
2019-02-06T23:11:01.133Z,14.37
2019-02-06T23:13:30.639Z,14.87
2019-02-06T23:16:00.095Z,15.87
2019-02-06T23:18:29.481Z,16.47
2019-02-06T23:20:58.884Z,16.17
2019-02-06T23:23:28.187Z,15.83
2019-02-06T23:25:57.874Z,16.67
2019-02-06T23:28:28.266Z,16.33
2019-02-06T23:30:57.646Z,17.33
2019-02-06T23:33:27.046Z,16.83
2019-02-06T23:35:56.430Z,17.13
2019-02-06T23:38:25.804Z,16.90
2019-02-06T23:40:55.207Z,17.50
2019-02-06T23:43:24.624Z,18.10
2019-02-06T23:45:53.943Z,17.60
2019-02-06T23:48:24.111Z,16.97
2019-02-06T23:50:53.500Z,16.70
2019-02-06T23:53:22.898Z,17.17
2019-02-06T23:55:52.239Z,16.70
2019-02-06T23:58:21.684Z,16.50
